createdAt,value
2023-04-02T00:00:43.459Z,92.1
2023-04-02T00:01:44.654Z,92.1
2023-04-02T00:02:45.563Z,92.1
2023-04-02T00:03:46.568Z,92.1
2023-04-02T00:04:47.504Z,92.1
2023-04-02T00:05:48.485Z,92.1
2023-04-02T00:06:49.635Z,92.1
2023-04-02T00:07:50.825Z,92.2
2023-04-02T00:08:51.770Z,92.2
2023-04-02T00:09:52.579Z,92.3
2023-04-02T00:10:53.389Z,92.2
2023-04-02T00:11:54.360Z,92.2
2023-04-02T00:12:55.522Z,92.3
2023-04-02T00:13:56.499Z,92.2
2023-04-02T00:14:57.509Z,92.2
2023-04-02T00:15:58.848Z,92.1
2023-04-02T00:17:00.007Z,92.1
2023-04-02T00:18:01.129Z,92.1
2023-04-02T00:19:02.147Z,92
2023-04-02T00:20:03.315Z,92
2023-04-02T00:21:04.474Z,92
2023-04-02T00:22:05.644Z,92.1
2023-04-02T00:23:06.829Z,92.1
2023-04-02T00:24:07.979Z,92.1
2023-04-02T00:25:09.166Z,92.2
2023-04-02T00:26:10.115Z,92.3
2023-04-02T00:27:10.935Z,92.3
2023-04-02T00:28:11.951Z,92.3
2023-04-02T00:29:12.963Z,92.3
2023-04-02T00:30:14.127Z,92.4
2023-04-02T00:31:15.290Z,92.4
2023-04-02T00:32:16.473Z,92.4
2023-04-02T00:33:17.710Z,92.4
2023-04-02T00:34:18.876Z,92.4
2023-04-02T00:35:19.840Z,92.4
2023-04-02T00:36:20.886Z,92.4
2023-04-02T00:37:21.639Z,92.4
2023-04-02T00:38:22.633Z,92.3
2023-04-02T00:39:23.776Z,92.4
2023-04-02T00:40:24.741Z,92.4
2023-04-02T00:41:25.765Z,92.4
2023-04-02T00:42:26.731Z,92.3
2023-04-02T00:43:27.715Z,92.2
2023-04-02T00:44:28.865Z,92.2
2023-04-02T00:46:30.746Z,92.1
2023-04-02T00:47:32.191Z,92.1
2023-04-02T00:48:33.153Z,92.1
2023-04-02T00:49:34.311Z,92.1
2023-04-02T00:50:35.274Z,92.1
2023-04-02T00:51:36.446Z,92.1
2023-04-02T00:52:37.414Z,92.1
2023-04-02T00:53:38.406Z,92.1
2023-04-02T00:54:39.547Z,92.2
2023-04-02T00:55:40.718Z,92.1
2023-04-02T00:56:41.756Z,92.1
2023-04-02T00:57:42.913Z,92
2023-04-02T00:58:43.874Z,92
2023-04-02T00:59:44.880Z,91.9
2023-04-02T01:00:45.689Z,91.8
2023-04-02T01:01:47.279Z,91.8
2023-04-02T01:02:48.925Z,91.8
2023-04-02T01:03:50.201Z,91.9
2023-04-02T01:04:51.277Z,91.9
2023-04-02T01:05:52.548Z,91.9
2023-04-02T01:06:54.123Z,91.8
2023-04-02T01:07:54.899Z,91.8
2023-04-02T01:08:55.890Z,91.8
2023-04-02T01:09:57.026Z,91.8
2023-04-02T01:10:58.230Z,91.9
2023-04-02T01:11:59.166Z,91.9
2023-04-02T01:13:00.330Z,92
2023-04-02T01:14:01.494Z,92.1
2023-04-02T01:15:02.654Z,92
2023-04-02T01:16:03.808Z,91.9
2023-04-02T01:17:04.947Z,91.9
2023-04-02T01:18:06.077Z,91.9
2023-04-02T01:19:07.229Z,92
2023-04-02T01:20:08.408Z,92.1
2023-04-02T01:21:09.171Z,92.2
2023-04-02T01:22:10.334Z,92.2
2023-04-02T01:23:11.367Z,92.2
2023-04-02T01:24:12.357Z,92.2
2023-04-02T01:25:13.299Z,92.2
2023-04-02T01:26:14.465Z,92.2
2023-04-02T01:27:15.664Z,92.2
2023-04-02T01:28:16.611Z,92.1
2023-04-02T01:29:17.609Z,92.1
2023-04-02T01:30:18.623Z,92.1
2023-04-02T01:31:19.694Z,92.1
2023-04-02T01:32:20.772Z,92.1
2023-04-02T01:33:21.807Z,92
2023-04-02T01:34:26.912Z,92
2023-04-02T01:35:28.045Z,92
2023-04-02T01:36:29.208Z,91.9
2023-04-02T01:37:30.372Z,91.8
2023-04-02T01:38:31.532Z,91.7
2023-04-02T01:39:32.376Z,91.7
2023-04-02T01:40:33.511Z,91.7
2023-04-02T01:41:34.675Z,91.6
2023-04-02T01:42:35.651Z,91.4
2023-04-02T01:43:36.619Z,91.3
2023-04-02T01:44:37.806Z,91.3
2023-04-02T01:45:38.806Z,91.3
2023-04-02T01:46:39.754Z,91.3
2023-04-02T01:47:40.676Z,91.3
2023-04-02T01:48:41.842Z,91.3
2023-04-02T01:49:42.812Z,91.3
2023-04-02T01:50:43.977Z,91.3
2023-04-02T01:51:44.985Z,91.3
2023-04-02T01:52:45.956Z,91.2
2023-04-02T01:53:47.113Z,91.2
2023-04-02T01:54:48.303Z,91.2
2023-04-02T01:55:49.518Z,91.2
2023-04-02T01:56:50.710Z,91.3
2023-04-02T01:57:51.853Z,91.1
2023-04-02T01:58:53.028Z,90.8
2023-04-02T01:59:53.990Z,90.7
2023-04-02T02:00:55.184Z,90.7
2023-04-02T02:01:56.357Z,90.7
2023-04-02T02:02:57.284Z,90.5
2023-04-02T02:03:58.238Z,90.5
2023-04-02T02:04:59.205Z,90.4
2023-04-02T02:06:00.362Z,90.4
2023-04-02T02:07:01.377Z,90.4
2023-04-02T02:08:02.355Z,90.4
2023-04-02T02:09:03.404Z,90.4
2023-04-02T02:10:04.499Z,90.4
2023-04-02T02:11:05.681Z,90.4
2023-04-02T02:12:06.832Z,90.3
2023-04-02T02:13:07.845Z,90.2
2023-04-02T02:14:09.012Z,90.1
2023-04-02T02:15:09.979Z,90.1
2023-04-02T02:16:10.949Z,90.2
2023-04-02T02:17:12.113Z,90.2
2023-04-02T02:18:13.279Z,90.3
2023-04-02T02:19:14.440Z,90.3
2023-04-02T02:20:15.456Z,90.4
2023-04-02T02:21:16.075Z,90.4
2023-04-02T02:22:17.051Z,90.3
2023-04-02T02:23:18.214Z,90.2
2023-04-02T02:24:19.379Z,90.2
2023-04-02T02:25:20.372Z,90.2
2023-04-02T02:26:21.393Z,90.2
2023-04-02T02:27:22.345Z,90.1
2023-04-02T02:28:23.169Z,90
2023-04-02T02:29:24.330Z,89.9
2023-04-02T02:30:25.493Z,89.8
2023-04-02T02:31:26.537Z,89.8
2023-04-02T02:32:27.621Z,89.9
2023-04-02T02:33:28.782Z,89.9
2023-04-02T02:34:29.829Z,89.8
2023-04-02T02:35:30.959Z,89.7
2023-04-02T02:36:32.120Z,89.7
2023-04-02T02:37:33.140Z,89.7
2023-04-02T02:38:33.961Z,89.6
2023-04-02T02:39:35.121Z,89.5
2023-04-02T02:40:36.113Z,89.6
2023-04-02T02:41:37.125Z,89.6
2023-04-02T02:42:38.297Z,89.6
2023-04-02T02:43:39.318Z,89.5
2023-04-02T02:44:40.284Z,89.5
2023-04-02T02:45:41.326Z,89.5
2023-04-02T02:46:42.360Z,89.4
2023-04-02T02:47:43.499Z,89.5
2023-04-02T02:48:44.669Z,89.4
2023-04-02T02:49:45.997Z,89.4
2023-04-02T02:50:47.008Z,89.3
2023-04-02T02:51:48.174Z,89.3
2023-04-02T02:52:49.345Z,89.3
2023-04-02T02:53:50.504Z,89.3
2023-04-02T02:54:51.669Z,89.3
2023-04-02T02:55:52.867Z,89.3
2023-04-02T02:56:54.018Z,89.2
2023-04-02T02:57:55.143Z,89.2
2023-04-02T02:58:56.113Z,89.1
2023-04-02T02:59:57.372Z,89
2023-04-02T03:00:58.702Z,89
2023-04-02T03:01:59.844Z,89
2023-04-02T03:03:01.238Z,88.9
2023-04-02T03:04:02.552Z,88.7
2023-04-02T03:05:03.431Z,88.7
2023-04-02T03:06:04.601Z,88.7
2023-04-02T03:07:05.412Z,88.7
2023-04-02T03:08:06.559Z,88.6
2023-04-02T03:09:07.719Z,88.6
2023-04-02T03:10:08.683Z,88.6
2023-04-02T03:11:09.716Z,88.5
2023-04-02T03:12:10.856Z,88.4
2023-04-02T03:13:11.825Z,88.5
2023-04-02T03:14:12.984Z,88.5
2023-04-02T03:15:13.952Z,88.5
2023-04-02T03:16:15.359Z,88.5
2023-04-02T03:17:16.612Z,88.4
2023-04-02T03:18:17.437Z,88.5
2023-04-02T03:19:18.447Z,88.4
2023-04-02T03:20:19.264Z,88.3
2023-04-02T03:21:20.431Z,88.2
2023-04-02T03:22:21.615Z,88.2
2023-04-02T03:23:22.587Z,88.1
2023-04-02T03:24:23.760Z,88.1
2023-04-02T03:25:24.917Z,88.2
2023-04-02T03:26:25.757Z,88.1
2023-04-02T03:27:26.913Z,88.1
2023-04-02T03:28:28.109Z,88.1
2023-04-02T03:29:29.249Z,88.2
2023-04-02T03:30:30.064Z,88.3
2023-04-02T03:31:31.215Z,88.4
2023-04-02T03:32:32.413Z,88.6
2023-04-02T03:33:33.559Z,88.6
2023-04-02T03:34:34.725Z,88.7
2023-04-02T03:35:37.043Z,88.6
2023-04-02T03:36:38.557Z,88.5
2023-04-02T03:37:39.723Z,88.6
2023-04-02T03:38:40.889Z,88.6
2023-04-02T03:39:42.058Z,88.6
2023-04-02T03:40:43.222Z,88.7
2023-04-02T03:41:44.070Z,88.7
2023-04-02T03:42:44.887Z,88.8
2023-04-02T03:43:45.858Z,88.9
2023-04-02T03:44:47.018Z,88.9
2023-04-02T03:45:48.058Z,88.9
2023-04-02T03:46:49.070Z,89
2023-04-02T03:47:50.056Z,89
2023-04-02T03:48:51.249Z,89
2023-04-02T03:49:52.271Z,89
2023-04-02T03:50:53.236Z,89.1
2023-04-02T03:51:54.249Z,89.2
2023-04-02T03:52:55.258Z,89.2
2023-04-02T03:53:56.426Z,89.3
2023-04-02T03:54:57.445Z,89.5
2023-04-02T03:55:58.600Z,89.6
2023-04-02T03:56:59.852Z,89.6
2023-04-02T03:58:00.841Z,89.7
2023-04-02T03:59:01.782Z,89.8
2023-04-02T04:00:02.742Z,89.8
2023-04-02T04:01:03.906Z,89.7
2023-04-02T04:02:05.154Z,89.7
2023-04-02T04:03:06.306Z,89.6
2023-04-02T04:04:07.653Z,89.6
2023-04-02T04:05:08.555Z,89.5
2023-04-02T04:06:09.719Z,89.5
2023-04-02T04:07:10.729Z,89.6
2023-04-02T04:08:11.698Z,89.6
2023-04-02T04:09:12.858Z,89.6
2023-04-02T04:10:14.038Z,89.6
2023-04-02T04:11:15.261Z,89.6
2023-04-02T04:12:16.531Z,89.6
2023-04-02T04:13:17.358Z,89.7
2023-04-02T04:14:18.316Z,89.7
2023-04-02T04:15:19.478Z,89.7
2023-04-02T04:16:20.743Z,89.6
2023-04-02T04:17:21.786Z,89.6
2023-04-02T04:18:22.949Z,89.6
2023-04-02T04:19:24.118Z,89.6
2023-04-02T04:20:25.284Z,89.6
2023-04-02T04:21:26.449Z,89.6
2023-04-02T04:22:27.816Z,89.6
2023-04-02T04:23:28.784Z,89.6
2023-04-02T04:24:29.808Z,89.6
2023-04-02T04:25:31.157Z,89.7
2023-04-02T04:26:31.928Z,89.7
2023-04-02T04:27:32.919Z,89.8
2023-04-02T04:28:34.009Z,89.8
2023-04-02T04:29:35.238Z,89.8
2023-04-02T04:30:36.403Z,89.8
2023-04-02T04:31:37.404Z,89.8
2023-04-02T04:32:38.517Z,89.7
2023-04-02T04:33:39.464Z,89.8
2023-04-02T04:34:40.628Z,89.8
2023-04-02T04:35:41.630Z,89.8
2023-04-02T04:36:42.772Z,89.8
2023-04-02T04:37:44.010Z,89.8
2023-04-02T04:38:45.173Z,89.8
2023-04-02T04:39:46.346Z,89.8
2023-04-02T04:40:47.363Z,89.8
2023-04-02T04:41:48.659Z,89.8
2023-04-02T04:42:49.840Z,89.8
2023-04-02T04:43:50.654Z,89.8
2023-04-02T04:44:51.642Z,89.7
2023-04-02T04:45:52.599Z,89.7
2023-04-02T04:46:53.621Z,89.6
2023-04-02T04:47:54.881Z,89.6
2023-04-02T04:48:55.877Z,89.5
2023-04-02T04:49:56.695Z,89.4
2023-04-02T04:50:57.866Z,89.3
2023-04-02T04:51:59.024Z,89.2
2023-04-02T04:52:59.993Z,89.2
2023-04-02T04:54:00.802Z,89.2
2023-04-02T04:55:01.975Z,89.1
2023-04-02T04:56:20.036Z,89
2023-04-02T04:57:21.075Z,89
2023-04-02T04:58:22.174Z,88.9
2023-04-02T04:59:23.147Z,88.8
2023-04-02T05:00:24.307Z,88.5
2023-04-02T05:01:25.510Z,88.5
2023-04-02T05:02:27.295Z,88.5
2023-04-02T05:03:28.333Z,88.4
2023-04-02T05:04:29.292Z,88.3
2023-04-02T05:05:30.180Z,88.2
2023-04-02T05:06:31.148Z,88.1
2023-04-02T05:07:32.017Z,88
2023-04-02T05:08:33.182Z,88
2023-04-02T05:09:34.149Z,87.9
2023-04-02T05:10:35.319Z,87.8
2023-04-02T05:11:36.481Z,87.8
2023-04-02T05:12:37.460Z,87.7
2023-04-02T05:13:38.646Z,87.7
2023-04-02T05:14:39.591Z,87.7
2023-04-02T05:15:40.847Z,87.7
2023-04-02T05:16:41.614Z,87.6
2023-04-02T05:17:42.798Z,87.6
2023-04-02T05:18:43.959Z,87.5
2023-04-02T05:19:44.921Z,87.4
2023-04-02T05:20:45.749Z,87.4
2023-04-02T05:21:46.505Z,87.2
2023-04-02T05:22:47.672Z,87.1
2023-04-02T05:23:48.838Z,87.1
2023-04-02T05:24:49.807Z,87.1
2023-04-02T05:25:50.778Z,87
2023-04-02T05:26:51.744Z,86.8
2023-04-02T05:27:52.836Z,86.7
2023-04-02T05:28:54.024Z,86.6
2023-04-02T05:29:54.846Z,86.5
2023-04-02T05:30:55.901Z,86.4
2023-04-02T05:31:57.066Z,86.4
2023-04-02T05:32:57.963Z,86.4
2023-04-02T05:33:58.974Z,86.4
2023-04-02T05:34:59.748Z,86.3
2023-04-02T05:36:00.888Z,86.3
2023-04-02T05:37:02.036Z,86.3
2023-04-02T05:38:03.203Z,86.3
2023-04-02T05:39:04.369Z,86.2
2023-04-02T05:40:05.343Z,86.1
2023-04-02T05:41:06.310Z,86
2023-04-02T05:42:07.321Z,85.9
2023-04-02T05:43:08.488Z,85.9
2023-04-02T05:44:09.685Z,85.8
2023-04-02T05:45:10.695Z,85.7
2023-04-02T05:46:12.087Z,85.5
2023-04-02T05:47:12.844Z,85.4
2023-04-02T05:48:13.884Z,85.3
2023-04-02T05:49:15.018Z,85.2
2023-04-02T05:50:15.989Z,85.2
2023-04-02T05:51:17.165Z,85
2023-04-02T05:52:18.341Z,85
2023-04-02T05:53:19.350Z,84.9
2023-04-02T05:54:20.354Z,84.8
2023-04-02T05:55:21.522Z,84.8
2023-04-02T05:56:22.699Z,84.7
2023-04-02T05:57:44.765Z,84.6
2023-04-02T05:58:50.372Z,84.5
2023-04-02T05:59:51.375Z,84.5
2023-04-02T06:00:52.392Z,84.2
2023-04-02T06:01:53.454Z,84.1
2023-04-02T06:02:54.597Z,84.1
2023-04-02T06:03:55.854Z,84.1
2023-04-02T06:04:56.926Z,84.1
2023-04-02T06:05:58.097Z,84
2023-04-02T06:06:59.268Z,83.9
2023-04-02T06:08:00.357Z,83.7
2023-04-02T06:09:01.657Z,83.6
2023-04-02T06:10:02.820Z,83.4
2023-04-02T06:11:03.986Z,83.3
2023-04-02T06:12:05.156Z,83.2
2023-04-02T06:13:06.331Z,83.2
2023-04-02T06:14:07.347Z,83.1
2023-04-02T06:15:08.538Z,83.1
2023-04-02T06:16:09.675Z,83
2023-04-02T06:17:10.691Z,82.9
2023-04-02T06:18:11.857Z,82.9
2023-04-02T06:19:13.043Z,82.9
2023-04-02T06:20:14.190Z,82.7
2023-04-02T06:21:15.355Z,82.7
2023-04-02T06:22:16.329Z,82.6
2023-04-02T06:23:17.500Z,82.6
2023-04-02T06:24:18.522Z,82.6
2023-04-02T06:25:19.693Z,82.6
2023-04-02T06:26:20.853Z,82.6
2023-04-02T06:27:21.955Z,82.6
2023-04-02T06:28:23.122Z,82.5
2023-04-02T06:29:24.088Z,82.5
2023-04-02T06:30:25.124Z,82.3
2023-04-02T06:31:26.444Z,82.4
2023-04-02T06:32:27.472Z,82.4
2023-04-02T06:33:28.627Z,82.2
2023-04-02T06:34:29.803Z,82.1
2023-04-02T06:35:30.811Z,82.1
2023-04-02T06:36:31.977Z,82.1
2023-04-02T06:37:33.143Z,82.1
2023-04-02T06:38:34.309Z,82.1
2023-04-02T06:39:35.540Z,82.1
2023-04-02T06:40:36.688Z,82.1
2023-04-02T06:41:37.714Z,82.1
2023-04-02T06:42:38.876Z,82.1
2023-04-02T06:43:39.852Z,82
2023-04-02T06:44:40.845Z,82
2023-04-02T06:45:41.963Z,82
2023-04-02T06:46:43.092Z,82
2023-04-02T06:47:44.306Z,82.1
2023-04-02T06:48:45.560Z,82
2023-04-02T06:49:46.724Z,81.9
2023-04-02T06:50:47.889Z,81.8
2023-04-02T06:51:49.052Z,81.8
2023-04-02T06:52:50.223Z,81.8
2023-04-02T06:53:51.239Z,81.9
2023-04-02T06:54:52.505Z,81.9
2023-04-02T06:55:53.664Z,81.8
2023-04-02T06:56:54.967Z,81.8
2023-04-02T06:57:55.911Z,81.9
2023-04-02T06:58:56.881Z,81.8
2023-04-02T06:59:57.852Z,81.8
2023-04-02T07:00:58.848Z,81.7
2023-04-02T07:01:59.945Z,81.7
2023-04-02T07:03:01.086Z,81.7
2023-04-02T07:04:01.911Z,81.6
2023-04-02T07:05:03.471Z,81.6
2023-04-02T07:06:04.724Z,81.6
2023-04-02T07:07:05.691Z,81.6
2023-04-02T07:08:06.661Z,81.6
2023-04-02T07:09:07.840Z,81.6
2023-04-02T07:10:08.806Z,81.5
2023-04-02T07:11:09.765Z,81.5
2023-04-02T07:12:10.941Z,81.4
2023-04-02T07:13:12.098Z,81.4
2023-04-02T07:14:13.264Z,81.4
2023-04-02T07:15:14.750Z,81.4
2023-04-02T07:16:16.469Z,81.3
2023-04-02T07:17:17.847Z,81.3
2023-04-02T07:18:18.971Z,81.3
2023-04-02T07:19:19.743Z,81.3
2023-04-02T07:20:20.907Z,81.2
2023-04-02T07:21:22.077Z,81.1
2023-04-02T07:22:23.240Z,81.1
2023-04-02T07:23:24.404Z,81.1
2023-04-02T07:24:25.570Z,81
2023-04-02T07:25:26.750Z,80.9
2023-04-02T07:26:27.955Z,80.9
2023-04-02T07:27:29.025Z,80.8
2023-04-02T07:28:30.192Z,80.6
2023-04-02T07:29:31.011Z,80.5
2023-04-02T07:30:32.188Z,80.5
2023-04-02T07:31:33.243Z,80.5
2023-04-02T07:32:34.314Z,80.4
2023-04-02T07:33:35.220Z,80.2
2023-04-02T07:34:36.433Z,80.1
2023-04-02T07:35:38.317Z,80
2023-04-02T07:36:39.532Z,79.9
2023-04-02T07:37:40.699Z,79.8
2023-04-02T07:38:41.327Z,79.6
2023-04-02T07:39:42.482Z,79.5
2023-04-02T07:40:43.636Z,79.4
2023-04-02T07:41:44.452Z,79.4
2023-04-02T07:42:45.617Z,79.4
2023-04-02T07:43:46.463Z,79.4
2023-04-02T07:44:47.436Z,79.2
2023-04-02T07:45:48.408Z,79.2
2023-04-02T07:46:49.736Z,79.2
2023-04-02T07:47:50.827Z,79.2
2023-04-02T07:48:51.775Z,79.3
2023-04-02T07:49:52.939Z,79.3
2023-04-02T07:50:54.102Z,79.4
2023-04-02T07:51:55.269Z,79.3
2023-04-02T07:52:56.440Z,79.2
2023-04-02T07:53:57.602Z,79.2
2023-04-02T07:54:58.771Z,79.1
2023-04-02T07:55:59.940Z,79
2023-04-02T07:57:01.177Z,78.9
2023-04-02T07:58:02.230Z,78.9
2023-04-02T07:59:03.203Z,78.9
2023-04-02T08:00:04.373Z,79
2023-04-02T08:01:05.538Z,79
2023-04-02T08:02:06.851Z,79.1
2023-04-02T08:03:08.299Z,79
2023-04-02T08:04:09.578Z,79
2023-04-02T08:05:10.721Z,78.9
2023-04-02T08:06:11.685Z,78.9
2023-04-02T08:07:12.850Z,78.8
2023-04-02T08:08:14.017Z,78.8
2023-04-02T08:09:14.991Z,78.7
2023-04-02T08:10:15.792Z,78.7
2023-04-02T08:11:16.938Z,78.7
2023-04-02T08:12:18.105Z,78.8
2023-04-02T08:13:19.285Z,78.9
2023-04-02T08:14:20.359Z,79
2023-04-02T08:15:21.530Z,78.9
2023-04-02T08:16:22.761Z,78.8
2023-04-02T08:17:23.940Z,78.9
2023-04-02T08:18:25.073Z,78.8
2023-04-02T08:19:26.043Z,78.7
2023-04-02T08:20:27.214Z,78.6
2023-04-02T08:21:28.415Z,78.6
2023-04-02T08:22:29.223Z,78.6
2023-04-02T08:23:30.194Z,78.6
2023-04-02T08:24:31.362Z,78.6
2023-04-02T08:25:32.500Z,78.5
2023-04-02T08:26:33.649Z,78.3
2023-04-02T08:27:34.824Z,78.2
2023-04-02T08:28:35.982Z,78.2
2023-04-02T08:29:37.144Z,78.1
2023-04-02T08:30:38.216Z,78.1
2023-04-02T08:31:39.382Z,78.1
2023-04-02T08:32:40.731Z,78.1
2023-04-02T08:33:41.785Z,78.2
2023-04-02T08:34:42.598Z,78.2
2023-04-02T08:35:43.782Z,78.3
2023-04-02T08:36:44.750Z,78.1
2023-04-02T08:37:45.731Z,78
2023-04-02T08:38:46.694Z,77.9
2023-04-02T08:39:47.855Z,77.9
2023-04-02T08:40:48.825Z,77.8
2023-04-02T08:41:50.022Z,77.9
2023-04-02T08:42:51.179Z,77.9
2023-04-02T08:43:52.151Z,77.9
2023-04-02T08:44:53.317Z,77.8
2023-04-02T08:45:54.439Z,77.8
2023-04-02T08:46:55.591Z,77.8
2023-04-02T08:47:57.256Z,77.8
2023-04-02T08:48:58.487Z,77.8
2023-04-02T08:49:59.667Z,77.7
2023-04-02T08:51:00.624Z,77.6
2023-04-02T08:52:01.813Z,77.6
2023-04-02T08:53:02.829Z,77.5
2023-04-02T08:54:03.801Z,77.5
2023-04-02T08:55:04.963Z,77.5
2023-04-02T08:56:06.176Z,77.5
2023-04-02T08:57:07.505Z,77.5
2023-04-02T08:58:08.687Z,77.5
2023-04-02T08:59:09.856Z,77.3
2023-04-02T09:00:11.018Z,77.2
2023-04-02T09:01:12.008Z,77.1
2023-04-02T09:02:13.171Z,77
2023-04-02T09:03:14.372Z,77
2023-04-02T09:04:15.607Z,77
2023-04-02T09:05:16.564Z,77
2023-04-02T09:06:17.729Z,76.9
2023-04-02T09:07:19.388Z,76.8
2023-04-02T09:08:20.547Z,76.7
2023-04-02T09:09:21.714Z,76.5
2023-04-02T09:10:22.881Z,76.4
2023-04-02T09:11:24.052Z,76.4
2023-04-02T09:12:25.216Z,76.3
2023-04-02T09:13:26.452Z,76.3
2023-04-02T09:14:27.640Z,76.3
2023-04-02T09:15:28.806Z,76.3
2023-04-02T09:16:30.364Z,76.3
2023-04-02T09:17:53.847Z,76.2
2023-04-02T09:18:55.439Z,76.2
2023-04-02T09:19:56.449Z,76.2
2023-04-02T09:20:57.622Z,76
2023-04-02T09:21:58.788Z,75.8
2023-04-02T09:22:59.959Z,75.6
2023-04-02T09:24:01.584Z,75.5
2023-04-02T09:25:03.751Z,75.6
2023-04-02T09:26:05.805Z,75.4
2023-04-02T09:27:06.973Z,75.2
2023-04-02T09:28:07.984Z,74.9
2023-04-02T09:29:09.453Z,74.8
2023-04-02T09:30:10.624Z,74.6
2023-04-02T09:31:11.802Z,74.5
2023-04-02T09:32:12.952Z,74.3
2023-04-02T09:33:13.994Z,74.2
2023-04-02T09:34:15.158Z,74
2023-04-02T09:35:27.487Z,74.1
2023-04-02T09:36:28.901Z,73.9
2023-04-02T09:37:30.056Z,73.7
2023-04-02T09:38:31.133Z,73.5
2023-04-02T09:39:32.303Z,73.4
2023-04-02T09:40:33.320Z,73.4
2023-04-02T09:41:37.548Z,73.1
2023-04-02T09:42:38.688Z,72.8
2023-04-02T09:43:39.882Z,72.6
2023-04-02T09:44:41.050Z,72.5
2023-04-02T09:45:42.218Z,72.5
2023-04-02T09:46:43.490Z,72.4
2023-04-02T09:47:44.517Z,72.1
2023-04-02T09:48:45.288Z,71.7
2023-04-02T09:49:46.133Z,71.4
2023-04-02T09:50:47.146Z,71.4
2023-04-02T09:51:48.315Z,71.2
2023-04-02T09:52:49.476Z,70.8
2023-04-02T09:53:50.663Z,70.8
2023-04-02T09:54:51.809Z,70.4
2023-04-02T09:55:52.972Z,70.3
2023-04-02T09:56:54.165Z,70.2
2023-04-02T09:57:55.114Z,70.2
2023-04-02T09:58:56.279Z,70.2
2023-04-02T09:59:57.450Z,70
2023-04-02T10:00:58.434Z,69.9
2023-04-02T10:01:59.582Z,69.8
2023-04-02T10:03:00.774Z,69.7
2023-04-02T10:04:01.969Z,69.6
2023-04-02T10:05:03.133Z,69.4
2023-04-02T10:06:04.152Z,69.2
2023-04-02T10:07:05.314Z,69
2023-04-02T10:08:06.488Z,68.9
2023-04-02T10:09:07.885Z,68.3
2023-04-02T10:10:09.052Z,68.4
2023-04-02T10:11:10.222Z,68
2023-04-02T10:12:11.378Z,68
2023-04-02T10:13:12.546Z,68.1
2023-04-02T10:14:13.714Z,68.2
2023-04-02T10:15:14.880Z,67.9
2023-04-02T10:16:15.641Z,67.5
2023-04-02T10:17:17.123Z,67.3
2023-04-02T10:18:18.258Z,67.1
2023-04-02T10:19:20.118Z,67.1
2023-04-02T10:20:21.265Z,67.2
2023-04-02T10:21:22.402Z,67.1
2023-04-02T10:22:23.539Z,66.8
2023-04-02T10:23:24.699Z,66.9
2023-04-02T10:24:25.861Z,67.1
2023-04-02T10:25:26.915Z,67.3
2023-04-02T10:26:27.887Z,67.5
2023-04-02T10:27:29.054Z,67.5
2023-04-02T10:28:30.217Z,67.4
2023-04-02T10:29:31.392Z,67.2
2023-04-02T10:30:32.565Z,67.2
2023-04-02T10:31:33.524Z,67.2
2023-04-02T10:32:34.568Z,67.3
2023-04-02T10:33:35.724Z,67.4
2023-04-02T10:34:36.894Z,67.5
2023-04-02T10:35:38.896Z,67.4
2023-04-02T10:36:40.235Z,67.4
2023-04-02T10:37:41.393Z,67.6
2023-04-02T10:38:42.357Z,67.4
2023-04-02T10:39:43.545Z,67.6
2023-04-02T10:40:44.692Z,67.7
2023-04-02T10:41:45.857Z,67.8
2023-04-02T10:42:47.026Z,67.6
2023-04-02T10:43:48.191Z,67.8
2023-04-02T10:44:49.356Z,67.7
2023-04-02T10:45:50.660Z,67.6
2023-04-02T10:46:51.815Z,67.7
2023-04-02T10:47:53.117Z,67.7
2023-04-02T10:48:54.327Z,67.7
2023-04-02T10:49:55.490Z,67.7
2023-04-02T10:50:56.699Z,67.7
2023-04-02T10:51:57.847Z,67.6
2023-04-02T10:52:59.009Z,67.6
2023-04-02T10:54:00.210Z,67.6
2023-04-02T10:55:01.139Z,67.7
2023-04-02T10:56:02.309Z,67.7
2023-04-02T10:57:03.500Z,67.8
2023-04-02T10:58:04.662Z,67.9
2023-04-02T10:59:05.817Z,67.9
2023-04-02T11:00:06.980Z,67.9
2023-04-02T11:01:07.785Z,67.8
2023-04-02T11:02:08.985Z,67.8
2023-04-02T11:03:10.357Z,67.9
2023-04-02T11:04:14.577Z,67.6
2023-04-02T11:05:15.944Z,67.6
2023-04-02T11:06:17.403Z,67.5
2023-04-02T11:07:18.543Z,67.5
2023-04-02T11:08:19.710Z,67.4
2023-04-02T11:09:20.875Z,67.2
2023-04-02T11:10:22.610Z,67.1
2023-04-02T11:11:23.772Z,66.9
2023-04-02T11:12:24.939Z,66.8
2023-04-02T11:13:26.113Z,66.5
2023-04-02T11:14:27.072Z,66.3
2023-04-02T11:15:28.238Z,66
2023-04-02T11:16:29.569Z,65.8
2023-04-02T11:17:30.703Z,65.7
2023-04-02T11:18:31.646Z,65.3
2023-04-02T11:19:32.811Z,65.2
2023-04-02T11:20:34.003Z,65.1
2023-04-02T11:21:58.455Z,65
2023-04-02T11:23:00.394Z,64.7
2023-04-02T11:24:01.669Z,64.5
2023-04-02T11:25:02.634Z,64.2
2023-04-02T11:26:03.644Z,64
2023-04-02T11:27:04.809Z,63.8
2023-04-02T11:28:05.976Z,63.5
2023-04-02T11:29:07.144Z,63.4
2023-04-02T11:30:08.332Z,63.3
2023-04-02T11:31:09.604Z,63.2
2023-04-02T11:32:10.765Z,63.1
2023-04-02T11:33:11.931Z,62.8
2023-04-02T11:34:13.098Z,62.7
2023-04-02T11:35:14.067Z,62.6
2023-04-02T11:36:15.386Z,61.8
2023-04-02T11:37:16.559Z,61.5
2023-04-02T11:38:17.707Z,61.5
2023-04-02T11:39:18.878Z,61.3
2023-04-02T11:40:20.044Z,61.4
2023-04-02T11:41:21.205Z,61.5
2023-04-02T11:42:22.174Z,61.3
2023-04-02T11:43:23.146Z,61.2
2023-04-02T11:44:24.328Z,61
2023-04-02T11:45:25.481Z,60.7
2023-04-02T11:46:26.565Z,60.9
2023-04-02T11:47:28.100Z,61
2023-04-02T11:48:29.356Z,60.8
2023-04-02T11:49:30.588Z,60.6
2023-04-02T11:50:31.650Z,60.4
2023-04-02T11:51:33.067Z,60.3
2023-04-02T11:52:34.220Z,59.9
2023-04-02T11:53:35.362Z,60
2023-04-02T11:54:36.552Z,60
2023-04-02T11:55:38.406Z,59.9
2023-04-02T11:56:39.750Z,59.8
2023-04-02T11:57:41.012Z,59.7
2023-04-02T11:58:42.113Z,59.7
2023-04-02T11:59:43.083Z,59.7
2023-04-02T12:00:44.053Z,59.8
2023-04-02T12:01:45.172Z,59.8
2023-04-02T12:02:46.845Z,59.9
2023-04-02T12:03:47.986Z,60
2023-04-02T12:04:49.378Z,59.9
2023-04-02T12:05:50.528Z,59.9
2023-04-02T12:06:51.694Z,59.9
2023-04-02T12:07:53.278Z,59.9
2023-04-02T12:08:58.977Z,59.8
2023-04-02T12:09:59.946Z,59.6
2023-04-02T12:11:01.110Z,59.4
2023-04-02T12:12:02.276Z,59.3
2023-04-02T12:13:03.445Z,59.4
2023-04-02T12:14:04.607Z,59.5
2023-04-02T12:15:05.778Z,59.5
2023-04-02T12:16:06.939Z,59.7
2023-04-02T12:17:10.585Z,59.9
2023-04-02T12:18:11.749Z,60.1
2023-04-02T12:19:12.901Z,60.2
2023-04-02T12:20:14.071Z,60.3
2023-04-02T12:21:15.238Z,59.8
2023-04-02T12:22:16.240Z,59.2
2023-04-02T12:23:17.407Z,59
2023-04-02T12:24:18.548Z,58.8
2023-04-02T12:25:19.713Z,58.8
2023-04-02T12:26:23.507Z,58.9
2023-04-02T12:27:24.677Z,58.8
2023-04-02T12:28:25.839Z,58.8
2023-04-02T12:29:26.925Z,59.1
2023-04-02T12:30:28.091Z,59
2023-04-02T12:31:29.283Z,59
2023-04-02T12:32:30.977Z,58.8
2023-04-02T12:33:32.116Z,58.8
2023-04-02T12:34:33.086Z,58.8
2023-04-02T12:35:34.310Z,58.9
2023-04-02T12:36:35.503Z,58.9
2023-04-02T12:37:36.639Z,58.8
2023-04-02T12:38:37.641Z,58.8
2023-04-02T12:39:38.788Z,58.9
2023-04-02T12:40:39.944Z,59.1
2023-04-02T12:41:41.113Z,58.9
2023-04-02T12:42:42.280Z,59.1
2023-04-02T12:43:43.094Z,58.7
2023-04-02T12:44:44.262Z,58.5
2023-04-02T12:45:45.427Z,58.5
2023-04-02T12:46:46.611Z,58.5
2023-04-02T12:47:47.852Z,58.5
2023-04-02T12:48:48.987Z,58.5
2023-04-02T12:49:50.157Z,58.4
2023-04-02T12:50:51.347Z,58.5
2023-04-02T12:51:52.502Z,58.2
2023-04-02T12:52:53.795Z,58.1
2023-04-02T12:53:54.981Z,57.9
2023-04-02T12:54:56.221Z,57.6
2023-04-02T12:55:57.391Z,57.4
2023-04-02T12:56:58.845Z,57.3
2023-04-02T12:58:00.039Z,57.3
2023-04-02T12:59:01.412Z,57.3
2023-04-02T13:00:02.542Z,57.4
2023-04-02T13:01:03.703Z,57.5
2023-04-02T13:02:05.034Z,57.3
2023-04-02T13:03:06.388Z,57.4
2023-04-02T13:04:07.843Z,57.3
2023-04-02T13:05:09.108Z,57.2
2023-04-02T13:06:10.277Z,57
2023-04-02T13:07:11.439Z,57
2023-04-02T13:08:12.608Z,56.8
2023-04-02T13:09:13.909Z,56.5
2023-04-02T13:10:15.042Z,56.3
2023-04-02T13:11:16.212Z,56.2
2023-04-02T13:12:17.374Z,56.1
2023-04-02T13:13:18.910Z,56.2
2023-04-02T13:14:20.078Z,56.2
2023-04-02T13:15:21.245Z,56.2
2023-04-02T13:16:22.581Z,56.2
2023-04-02T13:17:23.772Z,56.1
2023-04-02T13:18:24.923Z,56
2023-04-02T13:19:26.101Z,55.9
2023-04-02T13:20:27.254Z,55.8
2023-04-02T13:21:29.390Z,55.8
2023-04-02T13:22:30.552Z,55.8
2023-04-02T13:23:31.716Z,55.8
2023-04-02T13:24:32.913Z,55.6
2023-04-02T13:25:34.058Z,55.5
2023-04-02T13:26:35.216Z,55.5
2023-04-02T13:27:36.394Z,55.5
2023-04-02T13:28:37.548Z,55.4
2023-04-02T13:29:38.558Z,55.3
2023-04-02T13:30:39.723Z,55
2023-04-02T13:31:40.929Z,55
2023-04-02T13:32:42.281Z,55
2023-04-02T13:33:43.430Z,55.1
2023-04-02T13:34:44.599Z,55.1
2023-04-02T13:35:45.832Z,55.2
2023-04-02T13:36:46.974Z,55.3
2023-04-02T13:37:48.192Z,55.4
2023-04-02T13:38:49.392Z,55.5
2023-04-02T13:39:50.590Z,55.4
2023-04-02T13:40:51.725Z,55.3
2023-04-02T13:41:52.889Z,55.2